sensor_id;sensor_type;location;lat;lon;timestamp;temperature;humidity
12948;DHT22;6539;49.476;8.484;2023-01-13T00:01:24;11.20;99.90
12948;DHT22;6539;49.476;8.484;2023-01-13T00:03:51;11.00;99.90
12948;DHT22;6539;49.476;8.484;2023-01-13T00:06:22;11.70;99.90
12948;DHT22;6539;49.476;8.484;2023-01-13T00:08:50;11.50;99.90
12948;DHT22;6539;49.476;8.484;2023-01-13T00:11:18;11.30;99.90
12948;DHT22;6539;49.476;8.484;2023-01-13T00:13:45;11.20;99.90
12948;DHT22;6539;49.476;8.484;2023-01-13T00:16:12;11.40;99.90
12948;DHT22;6539;49.476;8.484;2023-01-13T00:18:41;11.30;99.90
12948;DHT22;6539;49.476;8.484;2023-01-13T00:21:15;11.40;99.90
12948;DHT22;6539;49.476;8.484;2023-01-13T00:23:45;11.20;99.90
12948;DHT22;6539;49.476;8.484;2023-01-13T00:26:22;11.50;99.90
12948;DHT22;6539;49.476;8.484;2023-01-13T00:28:54;11.30;99.90
12948;DHT22;6539;49.476;8.484;2023-01-13T00:31:22;11.30;99.90
12948;DHT22;6539;49.476;8.484;2023-01-13T00:36:16;11.50;99.90
12948;DHT22;6539;49.476;8.484;2023-01-13T00:38:48;11.50;99.90
12948;DHT22;6539;49.476;8.484;2023-01-13T00:41:17;11.40;99.90
12948;DHT22;6539;49.476;8.484;2023-01-13T00:43:48;11.60;99.90
12948;DHT22;6539;49.476;8.484;2023-01-13T00:46:17;11.20;99.90
12948;DHT22;6539;49.476;8.484;2023-01-13T00:48:45;11.30;99.90
12948;DHT22;6539;49.476;8.484;2023-01-13T00:51:21;11.60;99.90
12948;DHT22;6539;49.476;8.484;2023-01-13T00:53:49;11.30;99.90
12948;DHT22;6539;49.476;8.484;2023-01-13T00:56:18;11.20;99.90
12948;DHT22;6539;49.476;8.484;2023-01-13T00:58:48;11.50;99.90
12948;DHT22;6539;49.476;8.484;2023-01-13T01:01:17;11.50;99.90
12948;DHT22;6539;49.476;8.484;2023-01-13T01:03:49;12.50;99.90
12948;DHT22;6539;49.476;8.484;2023-01-13T01:06:20;11.60;99.90
12948;DHT22;6539;49.476;8.484;2023-01-13T01:08:49;11.40;99.90
12948;DHT22;6539;49.476;8.484;2023-01-13T01:11:20;11.20;99.90
12948;DHT22;6539;49.476;8.484;2023-01-13T01:13:50;11.30;99.90
12948;DHT22;6539;49.476;8.484;2023-01-13T01:16:20;11.50;99.90
12948;DHT22;6539;49.476;8.484;2023-01-13T01:18:50;11.50;99.90
12948;DHT22;6539;49.476;8.484;2023-01-13T01:21:24;11.40;99.90
12948;DHT22;6539;49.476;8.484;2023-01-13T01:23:52;11.50;99.90
12948;DHT22;6539;49.476;8.484;2023-01-13T01:26:24;11.50;99.90
12948;DHT22;6539;49.476;8.484;2023-01-13T01:28:52;11.30;99.90
12948;DHT22;6539;49.476;8.484;2023-01-13T01:31:27;11.10;99.90
12948;DHT22;6539;49.476;8.484;2023-01-13T01:33:55;11.50;99.90
12948;DHT22;6539;49.476;8.484;2023-01-13T01:36:23;11.30;99.90
12948;DHT22;6539;49.476;8.484;2023-01-13T01:38:58;11.10;99.90
12948;DHT22;6539;49.476;8.484;2023-01-13T01:41:29;11.00;99.90
12948;DHT22;6539;49.476;8.484;2023-01-13T01:47:08;11.10;99.90
12948;DHT22;6539;49.476;8.484;2023-01-13T01:49:45;11.40;99.90
12948;DHT22;6539;49.476;8.484;2023-01-13T01:52:15;10.90;99.90
12948;DHT22;6539;49.476;8.484;2023-01-13T01:55:04;11.40;99.90
12948;DHT22;6539;49.476;8.484;2023-01-13T01:57:53;10.90;99.90
12948;DHT22;6539;49.476;8.484;2023-01-13T02:00:27;11.50;99.90
12948;DHT22;6539;49.476;8.484;2023-01-13T02:02:55;11.20;99.90
12948;DHT22;6539;49.476;8.484;2023-01-13T02:05:21;11.00;99.90
12948;DHT22;6539;49.476;8.484;2023-01-13T02:07:52;11.10;99.90
12948;DHT22;6539;49.476;8.484;2023-01-13T02:10:23;11.00;99.90
12948;DHT22;6539;49.476;8.484;2023-01-13T02:12:58;11.20;99.90
12948;DHT22;6539;49.476;8.484;2023-01-13T02:15:37;11.00;99.90
12948;DHT22;6539;49.476;8.484;2023-01-13T02:32:54;11.10;99.90
12948;DHT22;6539;49.476;8.484;2023-01-13T02:38:57;10.90;99.90
12948;DHT22;6539;49.476;8.484;2023-01-13T02:44:27;11.00;99.90
12948;DHT22;6539;49.476;8.484;2023-01-13T02:49:49;10.60;99.90
12948;DHT22;6539;49.476;8.484;2023-01-13T02:55:17;10.80;99.90
12948;DHT22;6539;49.476;8.484;2023-01-13T02:57:48;10.80;99.90
12948;DHT22;6539;49.476;8.484;2023-01-13T03:00:22;10.50;99.90
12948;DHT22;6539;49.476;8.484;2023-01-13T03:02:51;10.80;99.90
12948;DHT22;6539;49.476;8.484;2023-01-13T03:05:20;10.60;99.90
12948;DHT22;6539;49.476;8.484;2023-01-13T03:16:46;10.80;99.90
12948;DHT22;6539;49.476;8.484;2023-01-13T03:19:29;10.80;99.90
12948;DHT22;6539;49.476;8.484;2023-01-13T03:27:53;10.80;99.90
12948;DHT22;6539;49.476;8.484;2023-01-13T03:30:30;10.70;99.90
12948;DHT22;6539;49.476;8.484;2023-01-13T03:33:23;11.00;99.90
12948;DHT22;6539;49.476;8.484;2023-01-13T03:35:57;10.90;99.90
12948;DHT22;6539;49.476;8.484;2023-01-13T03:38:30;10.70;99.90
12948;DHT22;6539;49.476;8.484;2023-01-13T03:41:11;10.80;99.90
12948;DHT22;6539;49.476;8.484;2023-01-13T03:43:51;10.90;99.90
12948;DHT22;6539;49.476;8.484;2023-01-13T03:50:05;11.00;99.90
12948;DHT22;6539;49.476;8.484;2023-01-13T03:52:46;11.00;99.90
12948;DHT22;6539;49.476;8.484;2023-01-13T03:55:19;10.80;99.90
12948;DHT22;6539;49.476;8.484;2023-01-13T03:58:00;11.70;99.90
12948;DHT22;6539;49.476;8.484;2023-01-13T04:00:34;10.70;99.90
12948;DHT22;6539;49.476;8.484;2023-01-13T04:03:08;10.60;99.90
12948;DHT22;6539;49.476;8.484;2023-01-13T04:05:42;10.80;99.90
12948;DHT22;6539;49.476;8.484;2023-01-13T04:08:21;10.80;99.90
12948;DHT22;6539;49.476;8.484;2023-01-13T04:10:57;10.80;99.90
12948;DHT22;6539;49.476;8.484;2023-01-13T04:13:33;10.70;99.90
12948;DHT22;6539;49.476;8.484;2023-01-13T04:16:05;10.90;99.90
12948;DHT22;6539;49.476;8.484;2023-01-13T04:18:36;10.90;99.90
12948;DHT22;6539;49.476;8.484;2023-01-13T04:21:04;10.80;99.90
12948;DHT22;6539;49.476;8.484;2023-01-13T04:23:31;10.90;99.90
12948;DHT22;6539;49.476;8.484;2023-01-13T04:28:24;11.20;99.90
12948;DHT22;6539;49.476;8.484;2023-01-13T04:33:17;10.80;99.90
12948;DHT22;6539;49.476;8.484;2023-01-13T04:35:47;11.10;99.90
12948;DHT22;6539;49.476;8.484;2023-01-13T04:38:19;10.90;99.90
12948;DHT22;6539;49.476;8.484;2023-01-13T04:40:48;11.00;99.90
12948;DHT22;6539;49.476;8.484;2023-01-13T04:43:16;11.30;99.90
12948;DHT22;6539;49.476;8.484;2023-01-13T04:45:42;11.10;99.90
12948;DHT22;6539;49.476;8.484;2023-01-13T04:48:11;11.80;99.90
12948;DHT22;6539;49.476;8.484;2023-01-13T04:50:37;10.90;99.90
12948;DHT22;6539;49.476;8.484;2023-01-13T04:53:03;11.10;99.90
12948;DHT22;6539;49.476;8.484;2023-01-13T04:55:34;11.40;99.90
12948;DHT22;6539;49.476;8.484;2023-01-13T04:58:09;11.00;99.90
12948;DHT22;6539;49.476;8.484;2023-01-13T05:05:30;11.40;99.90
12948;DHT22;6539;49.476;8.484;2023-01-13T05:07:58;11.00;99.90
12948;DHT22;6539;49.476;8.484;2023-01-13T05:10:25;11.00;99.90
12948;DHT22;6539;49.476;8.484;2023-01-13T05:12:51;11.10;99.90
12948;DHT22;6539;49.476;8.484;2023-01-13T05:15:35;11.40;99.90
12948;DHT22;6539;49.476;8.484;2023-01-13T05:18:19;11.20;99.90
12948;DHT22;6539;49.476;8.484;2023-01-13T05:20:46;11.10;99.90
12948;DHT22;6539;49.476;8.484;2023-01-13T05:23:14;11.30;99.90
12948;DHT22;6539;49.476;8.484;2023-01-13T05:25:58;11.10;99.90
12948;DHT22;6539;49.476;8.484;2023-01-13T05:28:30;11.30;99.90
12948;DHT22;6539;49.476;8.484;2023-01-13T05:30:59;11.00;99.90
12948;DHT22;6539;49.476;8.484;2023-01-13T05:33:29;11.00;99.90
12948;DHT22;6539;49.476;8.484;2023-01-13T05:36:00;10.90;99.90
12948;DHT22;6539;49.476;8.484;2023-01-13T05:38:32;11.20;99.90
12948;DHT22;6539;49.476;8.484;2023-01-13T05:41:00;11.40;99.90
12948;DHT22;6539;49.476;8.484;2023-01-13T05:43:44;11.30;99.90
12948;DHT22;6539;49.476;8.484;2023-01-13T05:46:13;11.50;99.90
12948;DHT22;6539;49.476;8.484;2023-01-13T05:48:42;11.30;99.90
12948;DHT22;6539;49.476;8.484;2023-01-13T05:51:10;11.20;99.90
12948;DHT22;6539;49.476;8.484;2023-01-13T05:53:36;11.30;99.90
12948;DHT22;6539;49.476;8.484;2023-01-13T05:56:08;11.20;99.90
12948;DHT22;6539;49.476;8.484;2023-01-13T06:01:08;11.60;99.90
12948;DHT22;6539;49.476;8.484;2023-01-13T06:06:05;11.40;99.90
12948;DHT22;6539;49.476;8.484;2023-01-13T06:08:36;11.30;99.90
12948;DHT22;6539;49.476;8.484;2023-01-13T06:11:04;11.50;99.90
12948;DHT22;6539;49.476;8.484;2023-01-13T06:13:35;11.00;99.90
12948;DHT22;6539;49.476;8.484;2023-01-13T06:16:03;11.00;99.90
12948;DHT22;6539;49.476;8.484;2023-01-13T06:18:32;11.10;99.90
12948;DHT22;6539;49.476;8.484;2023-01-13T06:20:57;11.10;99.90
12948;DHT22;6539;49.476;8.484;2023-01-13T06:23:23;11.00;99.90
12948;DHT22;6539;49.476;8.484;2023-01-13T06:28:55;11.10;99.90
12948;DHT22;6539;49.476;8.484;2023-01-13T06:31:21;11.50;99.90
12948;DHT22;6539;49.476;8.484;2023-01-13T06:33:51;11.30;99.90
12948;DHT22;6539;49.476;8.484;2023-01-13T06:36:25;11.30;99.90
12948;DHT22;6539;49.476;8.484;2023-01-13T06:38:58;11.30;99.90
12948;DHT22;6539;49.476;8.484;2023-01-13T06:41:31;11.60;99.90
12948;DHT22;6539;49.476;8.484;2023-01-13T06:44:17;11.30;99.90
12948;DHT22;6539;49.476;8.484;2023-01-13T06:46:45;11.10;99.90
12948;DHT22;6539;49.476;8.484;2023-01-13T06:49:14;11.00;99.90
12948;DHT22;6539;49.476;8.484;2023-01-13T06:51:39;11.10;99.90
12948;DHT22;6539;49.476;8.484;2023-01-13T06:54:05;11.20;99.90
12948;DHT22;6539;49.476;8.484;2023-01-13T06:56:38;11.20;99.90
12948;DHT22;6539;49.476;8.484;2023-01-13T06:59:08;11.00;99.90
12948;DHT22;6539;49.476;8.484;2023-01-13T07:01:34;11.00;99.90
12948;DHT22;6539;49.476;8.484;2023-01-13T07:04:04;11.00;99.90
12948;DHT22;6539;49.476;8.484;2023-01-13T07:06:30;11.10;99.90
12948;DHT22;6539;49.476;8.484;2023-01-13T07:08:56;11.00;99.90
12948;DHT22;6539;49.476;8.484;2023-01-13T07:11:23;11.00;99.90
12948;DHT22;6539;49.476;8.484;2023-01-13T07:13:49;11.00;99.90
12948;DHT22;6539;49.476;8.484;2023-01-13T07:16:33;11.30;99.90
12948;DHT22;6539;49.476;8.484;2023-01-13T07:18:59;10.90;99.90
12948;DHT22;6539;49.476;8.484;2023-01-13T07:21:24;11.20;99.90
12948;DHT22;6539;49.476;8.484;2023-01-13T07:23:50;10.90;99.90
12948;DHT22;6539;49.476;8.484;2023-01-13T07:26:19;10.80;99.90
12948;DHT22;6539;49.476;8.484;2023-01-13T07:28:47;11.00;99.90
12948;DHT22;6539;49.476;8.484;2023-01-13T07:31:17;10.90;99.90
12948;DHT22;6539;49.476;8.484;2023-01-13T07:33:46;10.70;99.90
12948;DHT22;6539;49.476;8.484;2023-01-13T07:36:14;10.90;99.90
12948;DHT22;6539;49.476;8.484;2023-01-13T07:38:40;11.10;99.90
12948;DHT22;6539;49.476;8.484;2023-01-13T07:41:11;10.90;99.90
12948;DHT22;6539;49.476;8.484;2023-01-13T07:43:56;10.70;99.90
12948;DHT22;6539;49.476;8.484;2023-01-13T07:46:24;10.80;99.90
12948;DHT22;6539;49.476;8.484;2023-01-13T07:48:50;10.90;99.90
12948;DHT22;6539;49.476;8.484;2023-01-13T07:51:16;10.90;99.90
12948;DHT22;6539;49.476;8.484;2023-01-13T07:53:46;11.20;99.90
12948;DHT22;6539;49.476;8.484;2023-01-13T07:56:12;10.80;99.90
12948;DHT22;6539;49.476;8.484;2023-01-13T08:01:09;10.50;99.90
12948;DHT22;6539;49.476;8.484;2023-01-13T08:03:37;10.60;99.90
12948;DHT22;6539;49.476;8.484;2023-01-13T08:06:03;10.50;99.90
12948;DHT22;6539;49.476;8.484;2023-01-13T08:08:30;10.40;99.90
12948;DHT22;6539;49.476;8.484;2023-01-13T08:10:59;11.00;99.90
12948;DHT22;6539;49.476;8.484;2023-01-13T08:13:26;10.40;99.90
12948;DHT22;6539;49.476;8.484;2023-01-13T08:15:59;10.80;99.90
12948;DHT22;6539;49.476;8.484;2023-01-13T08:18:27;10.40;99.90
12948;DHT22;6539;49.476;8.484;2023-01-13T08:20:53;10.40;99.90
12948;DHT22;6539;49.476;8.484;2023-01-13T08:23:22;10.80;99.90
12948;DHT22;6539;49.476;8.484;2023-01-13T08:25:48;10.60;99.90
12948;DHT22;6539;49.476;8.484;2023-01-13T08:28:15;10.70;99.90
12948;DHT22;6539;49.476;8.484;2023-01-13T08:30:41;10.80;99.90
12948;DHT22;6539;49.476;8.484;2023-01-13T08:33:09;10.80;99.90
12948;DHT22;6539;49.476;8.484;2023-01-13T08:35:39;10.80;99.90
12948;DHT22;6539;49.476;8.484;2023-01-13T08:38:06;10.60;99.90
12948;DHT22;6539;49.476;8.484;2023-01-13T08:40:32;10.70;99.90
12948;DHT22;6539;49.476;8.484;2023-01-13T08:43:04;10.60;99.90
12948;DHT22;6539;49.476;8.484;2023-01-13T08:45:30;10.70;99.90
12948;DHT22;6539;49.476;8.484;2023-01-13T08:50:23;10.50;99.90
12948;DHT22;6539;49.476;8.484;2023-01-13T08:52:53;10.80;99.90
12948;DHT22;6539;49.476;8.484;2023-01-13T08:55:19;10.60;99.90
12948;DHT22;6539;49.476;8.484;2023-01-13T08:57:45;11.00;99.90
12948;DHT22;6539;49.476;8.484;2023-01-13T09:00:12;10.50;99.90
12948;DHT22;6539;49.476;8.484;2023-01-13T09:02:40;10.70;99.90
12948;DHT22;6539;49.476;8.484;2023-01-13T09:05:07;10.60;99.90
12948;DHT22;6539;49.476;8.484;2023-01-13T09:07:35;10.80;99.90
12948;DHT22;6539;49.476;8.484;2023-01-13T09:10:06;10.70;99.90
12948;DHT22;6539;49.476;8.484;2023-01-13T09:12:34;10.70;99.90
12948;DHT22;6539;49.476;8.484;2023-01-13T09:15:19;11.10;99.90
12948;DHT22;6539;49.476;8.484;2023-01-13T09:17:48;11.10;99.90
12948;DHT22;6539;49.476;8.484;2023-01-13T09:20:16;11.20;99.90
12948;DHT22;6539;49.476;8.484;2023-01-13T09:22:42;10.80;99.90
12948;DHT22;6539;49.476;8.484;2023-01-13T09:25:10;11.50;99.90
12948;DHT22;6539;49.476;8.484;2023-01-13T09:27:37;11.20;99.90
12948;DHT22;6539;49.476;8.484;2023-01-13T09:30:06;10.80;99.90
12948;DHT22;6539;49.476;8.484;2023-01-13T09:32:32;10.90;99.90
12948;DHT22;6539;49.476;8.484;2023-01-13T09:34:58;11.30;99.90
12948;DHT22;6539;49.476;8.484;2023-01-13T09:37:32;11.20;99.90
12948;DHT22;6539;49.476;8.484;2023-01-13T09:40:14;11.60;99.90
12948;DHT22;6539;49.476;8.484;2023-01-13T09:43:27;11.30;99.90
12948;DHT22;6539;49.476;8.484;2023-01-13T09:46:15;11.30;99.90
12948;DHT22;6539;49.476;8.484;2023-01-13T09:49:03;11.30;99.90
12948;DHT22;6539;49.476;8.484;2023-01-13T09:51:43;11.80;99.90
12948;DHT22;6539;49.476;8.484;2023-01-13T09:54:32;11.30;99.90
12948;DHT22;6539;49.476;8.484;2023-01-13T09:57:11;11.50;99.90
12948;DHT22;6539;49.476;8.484;2023-01-13T09:59:40;11.30;99.90
12948;DHT22;6539;49.476;8.484;2023-01-13T10:04:37;11.40;99.90
12948;DHT22;6539;49.476;8.484;2023-01-13T10:07:04;11.00;99.90
12948;DHT22;6539;49.476;8.484;2023-01-13T10:12:22;11.00;99.90
12948;DHT22;6539;49.476;8.484;2023-01-13T10:15:21;11.40;99.90
12948;DHT22;6539;49.476;8.484;2023-01-13T10:21:24;10.30;99.90
12948;DHT22;6539;49.476;8.484;2023-01-13T10:27:28;11.00;99.90
12948;DHT22;6539;49.476;8.484;2023-01-13T10:32:59;11.40;99.90
12948;DHT22;6539;49.476;8.484;2023-01-13T10:35:56;11.30;99.90
12948;DHT22;6539;49.476;8.484;2023-01-13T10:43:42;11.30;99.90
12948;DHT22;6539;49.476;8.484;2023-01-13T10:46:14;11.30;99.90
12948;DHT22;6539;49.476;8.484;2023-01-13T10:48:55;11.30;99.90
12948;DHT22;6539;49.476;8.484;2023-01-13T10:51:30;11.40;99.90
12948;DHT22;6539;49.476;8.484;2023-01-13T10:56:45;11.50;99.90
12948;DHT22;6539;49.476;8.484;2023-01-13T10:59:12;11.40;99.90
12948;DHT22;6539;49.476;8.484;2023-01-13T11:04:39;11.50;99.90
12948;DHT22;6539;49.476;8.484;2023-01-13T11:15:18;11.40;99.90
12948;DHT22;6539;49.476;8.484;2023-01-13T11:17:59;11.50;99.90
12948;DHT22;6539;49.476;8.484;2023-01-13T11:20:33;12.20;99.90
12948;DHT22;6539;49.476;8.484;2023-01-13T11:23:22;12.70;99.90
12948;DHT22;6539;49.476;8.484;2023-01-13T11:26:17;13.30;99.90
12948;DHT22;6539;49.476;8.484;2023-01-13T11:29:08;13.30;99.90
12948;DHT22;6539;49.476;8.484;2023-01-13T11:31:47;13.50;99.90
12948;DHT22;6539;49.476;8.484;2023-01-13T11:34:35;13.60;99.90
12948;DHT22;6539;49.476;8.484;2023-01-13T11:37:14;14.10;99.90
12948;DHT22;6539;49.476;8.484;2023-01-13T11:40:56;14.10;99.90
12948;DHT22;6539;49.476;8.484;2023-01-13T11:45:57;14.00;99.90
12948;DHT22;6539;49.476;8.484;2023-01-13T11:48:30;14.30;99.90
12948;DHT22;6539;49.476;8.484;2023-01-13T12:03:25;13.20;99.90
12948;DHT22;6539;49.476;8.484;2023-01-13T12:06:30;12.90;99.90
12948;DHT22;6539;49.476;8.484;2023-01-13T12:21:17;12.40;99.90
12948;DHT22;6539;49.476;8.484;2023-01-13T12:26:43;12.10;99.90
12948;DHT22;6539;49.476;8.484;2023-01-13T12:29:18;12.40;99.90
12948;DHT22;6539;49.476;8.484;2023-01-13T12:31:46;12.30;99.90
12948;DHT22;6539;49.476;8.484;2023-01-13T12:34:26;12.00;99.90
12948;DHT22;6539;49.476;8.484;2023-01-13T12:37:40;12.00;99.90
12948;DHT22;6539;49.476;8.484;2023-01-13T12:43:23;12.30;99.90
12948;DHT22;6539;49.476;8.484;2023-01-13T12:57:22;11.60;99.90
12948;DHT22;6539;49.476;8.484;2023-01-13T13:02:35;11.70;99.90
12948;DHT22;6539;49.476;8.484;2023-01-13T13:07:47;11.70;99.90
12948;DHT22;6539;49.476;8.484;2023-01-13T13:10:28;11.60;99.90
12948;DHT22;6539;49.476;8.484;2023-01-13T13:12:58;11.90;99.90
12948;DHT22;6539;49.476;8.484;2023-01-13T13:15:48;11.70;99.90
12948;DHT22;6539;49.476;8.484;2023-01-13T13:18:22;11.70;99.90
12948;DHT22;6539;49.476;8.484;2023-01-13T13:21:02;11.80;99.90
12948;DHT22;6539;49.476;8.484;2023-01-13T13:23:35;11.70;99.90
12948;DHT22;6539;49.476;8.484;2023-01-13T13:34:29;11.60;99.90
12948;DHT22;6539;49.476;8.484;2023-01-13T13:37:18;11.50;99.90
12948;DHT22;6539;49.476;8.484;2023-01-13T13:39:48;11.70;99.90
12948;DHT22;6539;49.476;8.484;2023-01-13T13:42:43;11.40;99.90
12948;DHT22;6539;49.476;8.484;2023-01-13T13:45:49;11.40;99.90
12948;DHT22;6539;49.476;8.484;2023-01-13T13:48:34;11.70;99.90
12948;DHT22;6539;49.476;8.484;2023-01-13T13:51:27;11.70;99.90
12948;DHT22;6539;49.476;8.484;2023-01-13T13:54:02;11.80;99.90
12948;DHT22;6539;49.476;8.484;2023-01-13T13:56:33;11.40;99.90
12948;DHT22;6539;49.476;8.484;2023-01-13T13:59:06;11.60;99.90
12948;DHT22;6539;49.476;8.484;2023-01-13T14:01:39;11.90;99.90
12948;DHT22;6539;49.476;8.484;2023-01-13T14:06:54;11.60;99.90
12948;DHT22;6539;49.476;8.484;2023-01-13T14:09:23;11.30;99.90
12948;DHT22;6539;49.476;8.484;2023-01-13T14:12:02;11.10;99.90
12948;DHT22;6539;49.476;8.484;2023-01-13T14:14:31;11.00;99.90
12948;DHT22;6539;49.476;8.484;2023-01-13T14:16:57;11.10;99.90
12948;DHT22;6539;49.476;8.484;2023-01-13T14:19:28;11.00;99.90
12948;DHT22;6539;49.476;8.484;2023-01-13T14:21:55;11.10;99.90
12948;DHT22;6539;49.476;8.484;2023-01-13T14:24:23;10.60;99.90
12948;DHT22;6539;49.476;8.484;2023-01-13T14:26:49;10.70;99.90
12948;DHT22;6539;49.476;8.484;2023-01-13T14:29:26;10.70;99.90
12948;DHT22;6539;49.476;8.484;2023-01-13T14:31:54;10.60;99.90
12948;DHT22;6539;49.476;8.484;2023-01-13T14:34:23;11.00;99.90
12948;DHT22;6539;49.476;8.484;2023-01-13T14:36:56;10.60;99.90
12948;DHT22;6539;49.476;8.484;2023-01-13T14:39:24;10.90;99.90
12948;DHT22;6539;49.476;8.484;2023-01-13T14:41:57;10.60;99.90
12948;DHT22;6539;49.476;8.484;2023-01-13T14:44:27;10.50;99.90
12948;DHT22;6539;49.476;8.484;2023-01-13T14:47:48;10.60;99.90
12948;DHT22;6539;49.476;8.484;2023-01-13T14:50:15;10.40;99.90
12948;DHT22;6539;49.476;8.484;2023-01-13T14:52:51;10.60;99.90
12948;DHT22;6539;49.476;8.484;2023-01-13T14:58:27;10.50;99.90
12948;DHT22;6539;49.476;8.484;2023-01-13T15:01:28;10.50;99.90
12948;DHT22;6539;49.476;8.484;2023-01-13T15:04:36;10.40;99.90
12948;DHT22;6539;49.476;8.484;2023-01-13T15:07:09;10.50;99.90
12948;DHT22;6539;49.476;8.484;2023-01-13T15:09:44;10.40;99.90
12948;DHT22;6539;49.476;8.484;2023-01-13T15:12:16;10.10;99.90
12948;DHT22;6539;49.476;8.484;2023-01-13T15:14:52;10.60;99.90
12948;DHT22;6539;49.476;8.484;2023-01-13T15:17:18;10.70;99.90
12948;DHT22;6539;49.476;8.484;2023-01-13T15:19:44;10.60;99.90
12948;DHT22;6539;49.476;8.484;2023-01-13T15:22:12;11.00;99.90
12948;DHT22;6539;49.476;8.484;2023-01-13T15:24:37;10.70;99.90
12948;DHT22;6539;49.476;8.484;2023-01-13T15:27:15;10.60;99.90
12948;DHT22;6539;49.476;8.484;2023-01-13T15:29:49;10.70;99.90
12948;DHT22;6539;49.476;8.484;2023-01-13T15:32:21;10.50;99.90
12948;DHT22;6539;49.476;8.484;2023-01-13T15:34:47;10.50;99.90
12948;DHT22;6539;49.476;8.484;2023-01-13T15:37:15;10.60;99.90
12948;DHT22;6539;49.476;8.484;2023-01-13T15:39:45;10.50;99.90
12948;DHT22;6539;49.476;8.484;2023-01-13T15:42:11;10.70;99.90
12948;DHT22;6539;49.476;8.484;2023-01-13T15:44:58;10.80;99.90
12948;DHT22;6539;49.476;8.484;2023-01-13T15:47:43;10.80;99.90
12948;DHT22;6539;49.476;8.484;2023-01-13T15:50:14;10.80;99.90
12948;DHT22;6539;49.476;8.484;2023-01-13T15:52:43;10.60;99.90
12948;DHT22;6539;49.476;8.484;2023-01-13T15:55:13;10.40;99.90
12948;DHT22;6539;49.476;8.484;2023-01-13T15:57:45;10.50;99.90
12948;DHT22;6539;49.476;8.484;2023-01-13T16:00:20;11.00;99.90
12948;DHT22;6539;49.476;8.484;2023-01-13T16:02:49;10.90;99.90
12948;DHT22;6539;49.476;8.484;2023-01-13T16:05:15;10.90;99.90
12948;DHT22;6539;49.476;8.484;2023-01-13T16:07:44;10.70;99.90
12948;DHT22;6539;49.476;8.484;2023-01-13T16:10:20;10.70;99.90
12948;DHT22;6539;49.476;8.484;2023-01-13T16:12:51;10.70;99.90
12948;DHT22;6539;49.476;8.484;2023-01-13T16:15:18;10.90;99.90
12948;DHT22;6539;49.476;8.484;2023-01-13T16:17:56;10.60;99.90
12948;DHT22;6539;49.476;8.484;2023-01-13T16:20:27;10.90;99.90
12948;DHT22;6539;49.476;8.484;2023-01-13T16:22:54;11.00;99.90
12948;DHT22;6539;49.476;8.484;2023-01-13T16:25:24;10.70;99.90
12948;DHT22;6539;49.476;8.484;2023-01-13T16:27:52;10.50;99.90
12948;DHT22;6539;49.476;8.484;2023-01-13T16:30:35;11.00;99.90
12948;DHT22;6539;49.476;8.484;2023-01-13T16:33:02;10.70;99.90
12948;DHT22;6539;49.476;8.484;2023-01-13T16:35:30;10.60;99.90
12948;DHT22;6539;49.476;8.484;2023-01-13T16:37:59;10.50;99.90
12948;DHT22;6539;49.476;8.484;2023-01-13T16:40:31;10.70;99.90
12948;DHT22;6539;49.476;8.484;2023-01-13T16:43:02;11.00;99.90
12948;DHT22;6539;49.476;8.484;2023-01-13T16:45:32;10.60;99.90
12948;DHT22;6539;49.476;8.484;2023-01-13T16:47:58;10.70;99.90
12948;DHT22;6539;49.476;8.484;2023-01-13T16:50:37;10.70;99.90
12948;DHT22;6539;49.476;8.484;2023-01-13T16:53:08;11.00;99.90
12948;DHT22;6539;49.476;8.484;2023-01-13T16:55:39;10.40;99.90
12948;DHT22;6539;49.476;8.484;2023-01-13T16:58:10;10.80;99.90
12948;DHT22;6539;49.476;8.484;2023-01-13T17:00:41;10.80;99.90
12948;DHT22;6539;49.476;8.484;2023-01-13T17:03:07;10.70;99.90
12948;DHT22;6539;49.476;8.484;2023-01-13T17:05:32;10.50;99.90
12948;DHT22;6539;49.476;8.484;2023-01-13T17:08:06;10.80;99.90
12948;DHT22;6539;49.476;8.484;2023-01-13T17:10:34;10.60;99.90
12948;DHT22;6539;49.476;8.484;2023-01-13T17:13:00;10.40;99.90
12948;DHT22;6539;49.476;8.484;2023-01-13T17:15:27;10.80;99.90
12948;DHT22;6539;49.476;8.484;2023-01-13T17:17:53;10.40;99.90
12948;DHT22;6539;49.476;8.484;2023-01-13T17:20:20;10.40;99.90
12948;DHT22;6539;49.476;8.484;2023-01-13T17:22:48;10.40;99.90
12948;DHT22;6539;49.476;8.484;2023-01-13T17:25:16;10.70;99.90
12948;DHT22;6539;49.476;8.484;2023-01-13T17:27:44;10.50;99.90
12948;DHT22;6539;49.476;8.484;2023-01-13T17:30:11;10.50;99.90
12948;DHT22;6539;49.476;8.484;2023-01-13T17:32:45;10.60;99.90
12948;DHT22;6539;49.476;8.484;2023-01-13T17:35:11;10.10;99.90
12948;DHT22;6539;49.476;8.484;2023-01-13T17:37:39;10.50;99.90
12948;DHT22;6539;49.476;8.484;2023-01-13T17:40:08;10.40;99.90
12948;DHT22;6539;49.476;8.484;2023-01-13T17:42:36;10.50;99.90
12948;DHT22;6539;49.476;8.484;2023-01-13T17:45:04;10.40;99.90
12948;DHT22;6539;49.476;8.484;2023-01-13T17:47:30;10.30;99.90
12948;DHT22;6539;49.476;8.484;2023-01-13T17:49:58;10.30;99.90
12948;DHT22;6539;49.476;8.484;2023-01-13T17:52:28;10.10;99.90
12948;DHT22;6539;49.476;8.484;2023-01-13T17:54:56;10.40;99.90
12948;DHT22;6539;49.476;8.484;2023-01-13T17:57:22;10.30;99.90
12948;DHT22;6539;49.476;8.484;2023-01-13T17:59:53;10.30;99.90
12948;DHT22;6539;49.476;8.484;2023-01-13T18:02:24;10.50;99.90
12948;DHT22;6539;49.476;8.484;2023-01-13T18:04:50;10.50;99.90
12948;DHT22;6539;49.476;8.484;2023-01-13T18:09:42;10.30;99.90
12948;DHT22;6539;49.476;8.484;2023-01-13T18:12:08;10.30;99.90
12948;DHT22;6539;49.476;8.484;2023-01-13T18:14:34;10.00;99.90
12948;DHT22;6539;49.476;8.484;2023-01-13T18:17:00;10.20;99.90
12948;DHT22;6539;49.476;8.484;2023-01-13T18:19:29;10.30;99.90
12948;DHT22;6539;49.476;8.484;2023-01-13T18:22:15;10.40;99.90
12948;DHT22;6539;49.476;8.484;2023-01-13T18:24:59;10.30;99.90
12948;DHT22;6539;49.476;8.484;2023-01-13T18:27:46;10.00;99.90
12948;DHT22;6539;49.476;8.484;2023-01-13T18:30:15;10.30;99.90
12948;DHT22;6539;49.476;8.484;2023-01-13T18:32:40;10.10;99.90
12948;DHT22;6539;49.476;8.484;2023-01-13T18:35:09;10.30;99.90
12948;DHT22;6539;49.476;8.484;2023-01-13T18:37:41;10.40;99.90
12948;DHT22;6539;49.476;8.484;2023-01-13T18:40:11;10.60;99.90
12948;DHT22;6539;49.476;8.484;2023-01-13T18:42:38;10.40;99.90
12948;DHT22;6539;49.476;8.484;2023-01-13T18:45:31;10.40;99.90
12948;DHT22;6539;49.476;8.484;2023-01-13T18:48:01;10.50;99.90
12948;DHT22;6539;49.476;8.484;2023-01-13T18:50:29;10.40;99.90
12948;DHT22;6539;49.476;8.484;2023-01-13T18:52:56;10.60;99.90
12948;DHT22;6539;49.476;8.484;2023-01-13T18:55:25;10.40;99.90
12948;DHT22;6539;49.476;8.484;2023-01-13T18:57:53;10.10;99.90
12948;DHT22;6539;49.476;8.484;2023-01-13T19:00:22;10.50;99.90
12948;DHT22;6539;49.476;8.484;2023-01-13T19:02:52;10.90;99.90
12948;DHT22;6539;49.476;8.484;2023-01-13T19:05:21;10.40;99.90
12948;DHT22;6539;49.476;8.484;2023-01-13T19:07:46;10.50;99.90
12948;DHT22;6539;49.476;8.484;2023-01-13T19:10:18;10.40;99.90
12948;DHT22;6539;49.476;8.484;2023-01-13T19:12:49;10.20;99.90